Time;durP1;ratioP1;P1;durP2;ratioP2;P2;SDS_P1;SDS_P2;PMS_P1;PMS_P2;Temp;Humidity;BMP_temperature;BMP_pressure;BME280_temperature;BME280_humidity;BME280_pressure;Samples;Min_cycle;Max_cycle;Signal;HPM_P1;HPM_P2
2023/12/07 00:01:46;;;;;;;8.70;3.10;;;7.50;99.90;;;6.71;100.00;101064.44;4153198;28;20034;-83
2023/12/07 00:03:47;;;;;;;5.35;2.60;;;7.50;99.90;;;6.73;100.00;101055.50;4185813;28;20036;-84
2023/12/07 00:05:48;;;;;;;5.28;2.13;;;7.50;99.90;;;6.71;100.00;101041.69;4185957;28;20017;-84
2023/12/07 00:07:48;;;;;;;4.72;2.17;;;7.50;99.90;;;6.73;100.00;101042.38;4152672;28;20018;-84
2023/12/07 00:09:49;;;;;;;8.85;2.53;;;7.50;99.90;;;6.74;100.00;101056.34;4154439;28;20022;-85
2023/12/07 00:11:50;;;;;;;5.07;2.67;;;7.50;99.90;;;6.72;100.00;101045.16;4154537;28;20073;-84
2023/12/07 00:13:51;;;;;;;7.40;3.10;;;7.50;99.90;;;6.73;100.00;101026.66;4159313;28;20507;-84
2023/12/07 00:15:52;;;;;;;8.00;2.85;;;7.50;99.90;;;6.71;100.00;101009.41;4155388;28;20037;-84
2023/12/07 00:17:53;;;;;;;9.07;2.78;;;7.50;99.90;;;6.75;100.00;101005.56;4154489;28;20040;-84
2023/12/07 00:19:55;;;;;;;6.65;2.90;;;7.50;99.90;;;6.76;100.00;100996.75;4154141;28;20489;-84
2023/12/07 00:21:56;;;;;;;7.82;2.83;;;7.50;99.90;;;6.79;100.00;100980.75;4154232;28;20030;-85
2023/12/07 00:23:57;;;;;;;7.28;3.67;;;7.50;99.90;;;6.70;100.00;100961.38;4153720;28;20033;-84
2023/12/07 00:25:58;;;;;;;10.57;3.72;;;7.50;99.90;;;6.70;100.00;100966.63;4153015;28;20493;-85
2023/12/07 00:27:59;;;;;;;9.70;3.72;;;7.50;99.90;;;6.67;100.00;100974.72;4154127;28;20379;-84
2023/12/07 00:30:00;;;;;;;7.50;3.45;;;7.50;99.90;;;6.67;100.00;100985.22;4154069;28;20026;-83
2023/12/07 00:32:01;;;;;;;12.18;3.50;;;7.50;99.90;;;6.68;100.00;100997.38;4152853;28;20025;-83
2023/12/07 00:34:02;;;;;;;5.85;2.88;;;7.50;99.90;;;6.66;100.00;100991.41;4153982;28;20034;-83
2023/12/07 00:36:03;;;;;;;4.85;2.33;;;7.50;99.90;;;6.67;100.00;100991.28;4153997;28;20029;-85
2023/12/07 00:38:06;;;;;;;4.82;2.08;;;7.50;99.90;;;6.66;100.00;100991.41;4153783;28;20061;-83
2023/12/07 00:40:10;;;;;;;3.55;1.95;;;7.50;99.90;;;6.70;100.00;101008.56;4152684;28;20022;-85
2023/12/07 00:42:10;;;;;;;4.40;2.13;;;7.50;99.90;;;6.68;100.00;101007.84;4152802;28;20125;-83
2023/12/07 00:44:11;;;;;;;5.90;2.22;;;7.50;99.90;;;6.73;100.00;101007.47;4152642;28;20067;-84
2023/12/07 00:46:12;;;;;;;6.18;1.73;;;7.50;99.90;;;6.72;100.00;101003.22;4153792;28;20030;-84
2023/12/07 00:48:13;;;;;;;4.10;1.83;;;7.50;99.90;;;6.72;100.00;101008.44;4152579;28;20026;-83
2023/12/07 00:50:15;;;;;;;5.65;1.80;;;7.50;99.90;;;6.73;100.00;100991.75;4153699;28;20037;-85
2023/12/07 00:52:16;;;;;;;4.63;1.58;;;7.60;99.90;;;6.75;100.00;100982.78;4152921;28;20053;-84
2023/12/07 00:54:16;;;;;;;4.72;1.65;;;7.50;99.90;;;6.69;100.00;100965.78;4162088;28;20029;-83
2023/12/07 00:56:17;;;;;;;8.00;2.45;;;7.50;99.90;;;6.73;100.00;100962.91;4156151;28;20036;-84
2023/12/07 00:58:18;;;;;;;6.90;2.47;;;7.50;99.90;;;6.71;100.00;100943.84;4153482;28;20034;-84
2023/12/07 01:00:19;;;;;;;11.50;3.40;;;7.50;99.90;;;6.66;100.00;100928.50;4152162;28;20068;-83
2023/12/07 01:02:20;;;;;;;6.20;2.10;;;7.50;99.90;;;6.67;100.00;100915.28;4152374;28;20053;-84
2023/12/07 01:04:21;;;;;;;5.18;2.25;;;7.50;99.90;;;6.68;100.00;100918.72;4152111;28;20490;-84
2023/12/07 01:06:21;;;;;;;5.30;2.08;;;7.50;99.90;;;6.65;100.00;100927.69;4152086;28;20036;-84
2023/12/07 01:08:22;;;;;;;6.88;2.20;;;7.50;99.90;;;6.64;100.00;100923.41;4153289;28;20030;-84
2023/12/07 01:10:23;;;;;;;2.95;1.42;;;7.50;99.90;;;6.69;100.00;100939.56;4153459;28;20026;-84
2023/12/07 01:12:24;;;;;;;4.13;1.80;;;7.50;99.90;;;6.65;100.00;100922.44;4153342;28;20080;-85
2023/12/07 01:14:25;;;;;;;5.30;1.50;;;7.50;99.90;;;6.67;100.00;100924.94;4153267;28;20048;-84
2023/12/07 01:16:26;;;;;;;4.82;1.45;;;7.50;99.90;;;6.65;100.00;100930.31;4153235;28;20053;-83
2023/12/07 01:18:27;;;;;;;3.53;1.25;;;7.50;99.90;;;6.65;100.00;100932.94;4152185;28;20062;-83
2023/12/07 01:20:27;;;;;;;4.38;1.30;;;7.50;99.90;;;6.64;100.00;100941.75;4135583;28;20041;-85
2023/12/07 01:22:28;;;;;;;3.78;1.70;;;7.40;99.90;;;6.64;100.00;100944.38;4152833;28;20034;-84
2023/12/07 01:24:29;;;;;;;5.28;1.60;;;7.40;99.90;;;6.64;100.00;100946.16;4153208;28;20038;-84
2023/12/07 01:26:30;;;;;;;6.20;1.42;;;7.50;99.90;;;6.66;100.00;100947.69;4153215;28;20079;-84
2023/12/07 01:28:31;;;;;;;4.82;1.50;;;7.50;99.90;;;6.66;100.00;100941.59;4151840;28;20026;-84
2023/12/07 01:30:32;;;;;;;7.82;1.85;;;7.50;99.90;;;6.64;100.00;100936.50;4152990;28;20018;-84
2023/12/07 01:32:32;;;;;;;3.47;1.40;;;7.50;99.90;;;6.68;100.00;100943.16;4158984;28;20056;-84
2023/12/07 01:34:33;;;;;;;5.20;1.17;;;7.50;99.90;;;6.68;100.00;100937.09;4153165;28;20029;-84
2023/12/07 01:36:34;;;;;;;7.00;1.40;;;7.50;99.90;;;6.68;100.00;100931.84;4153172;28;20025;-85
2023/12/07 01:38:35;;;;;;;4.25;1.33;;;7.50;99.90;;;6.65;100.00;100919.81;4151514;28;20022;-84
2023/12/07 01:40:36;;;;;;;2.97;1.48;;;7.50;99.90;;;6.67;100.00;100928.38;4151895;28;20441;-85
2023/12/07 01:42:38;;;;;;;7.03;1.73;;;7.50;99.90;;;6.66;100.00;100916.22;4153013;28;20037;-85
2023/12/07 01:44:39;;;;;;;4.10;1.45;;;7.50;99.90;;;6.64;100.00;100909.44;4167928;28;20128;-85
2023/12/07 01:46:41;;;;;;;6.22;1.70;;;7.50;99.90;;;6.59;100.00;100912.47;4151594;28;20025;-84
2023/12/07 01:48:43;;;;;;;6.30;1.50;;;7.40;99.90;;;6.53;100.00;100907.72;4151773;28;20022;-85
2023/12/07 01:50:43;;;;;;;5.28;1.65;;;7.40;99.90;;;6.50;100.00;100912.38;4151731;28;20488;-84
2023/12/07 01:52:48;;;;;;;5.45;1.55;;;7.30;99.90;;;6.45;100.00;100904.06;4151861;28;20022;-84
2023/12/07 01:54:48;;;;;;;5.80;1.70;;;7.30;99.90;;;6.39;100.00;100887.03;4151493;28;20033;-85
2023/12/07 01:56:51;;;;;;;5.68;1.55;;;7.30;99.90;;;6.39;100.00;100894.09;4151711;28;20061;-85
2023/12/07 01:58:53;;;;;;;7.45;2.97;;;7.30;99.90;;;6.38;100.00;100901.13;4151584;28;20117;-83
2023/12/07 02:00:54;;;;;;;7.15;1.92;;;7.30;99.90;;;6.43;100.00;100908.59;4184343;28;20025;-85
2023/12/07 02:02:55;;;;;;;5.97;2.38;;;7.20;99.90;;;6.48;100.00;100909.88;4164734;28;20033;-85
2023/12/07 02:04:56;;;;;;;7.55;2.78;;;7.30;99.90;;;6.44;100.00;100908.47;4151188;28;20041;-84
2023/12/07 02:06:59;;;;;;;6.35;1.88;;;7.30;99.90;;;6.50;100.00;100915.84;4186497;28;20020;-86
2023/12/07 02:09:01;;;;;;;2.97;1.70;;;7.30;99.90;;;6.54;100.00;100914.63;4183787;28;20064;-84
2023/12/07 02:11:02;;;;;;;5.45;1.65;;;7.30;99.90;;;6.49;100.00;100908.94;4152105;28;20147;-85
2023/12/07 02:13:05;;;;;;;6.45;1.50;;;7.30;99.90;;;6.53;100.00;100912.13;4151485;28;20540;-85
2023/12/07 02:15:07;;;;;;;5.68;1.70;;;7.40;99.90;;;6.56;100.00;100902.25;4151388;28;20029;-84
2023/12/07 02:17:16;;;;;;;2.88;1.80;;;7.40;99.90;;;6.59;100.00;100904.59;4152239;28;20054;-85
2023/12/07 02:19:56;;;;;;;6.93;1.90;;;7.40;99.90;;;6.57;100.00;100908.31;4152290;28;20103;-85
2023/12/07 02:22:02;;;;;;;3.67;1.67;;;7.40;99.90;;;6.53;100.00;100897.25;4152567;28;20101;-85
2023/12/07 02:24:05;;;;;;;6.15;1.52;;;7.40;99.90;;;6.56;100.00;100894.38;4150893;28;20034;-85
2023/12/07 02:26:08;;;;;;;3.72;1.98;;;7.40;99.90;;;6.58;100.00;100897.69;4151532;28;20097;-86
2023/12/07 02:28:09;;;;;;;6.23;1.80;;;7.40;99.90;;;6.58;100.00;100889.81;4167652;28;20018;-85
2023/12/07 02:30:12;;;;;;;7.93;2.17;;;7.40;99.90;;;6.58;100.00;100895.06;4152414;28;20018;-84
2023/12/07 02:32:13;;;;;;;5.68;1.50;;;7.40;99.90;;;6.62;100.00;100895.66;4150816;28;20026;-83
2023/12/07 02:34:14;;;;;;;4.90;1.80;;;7.40;99.90;;;6.55;100.00;100884.84;4152574;28;20026;-83
2023/12/07 02:36:19;;;;;;;8.13;1.58;;;7.40;99.90;;;6.60;100.00;100879.22;4151329;28;20069;-84
2023/12/07 02:38:24;;;;;;;7.95;1.92;;;7.40;99.90;;;6.60;100.00;100881.84;4150908;28;20040;-84
2023/12/07 02:40:28;;;;;;;4.57;1.70;;;7.40;99.90;;;6.60;100.00;100879.22;4151503;28;20034;-85
2023/12/07 02:42:31;;;;;;;4.38;1.63;;;7.40;99.90;;;6.58;100.00;100870.66;4162040;28;20429;-84
2023/12/07 02:44:32;;;;;;;7.30;1.90;;;7.40;99.90;;;6.55;100.00;100869.13;4152260;28;20532;-85
2023/12/07 02:46:33;;;;;;;6.50;1.83;;;7.40;99.90;;;6.55;100.00;100863.88;4151077;28;20018;-83
2023/12/07 02:48:34;;;;;;;5.03;2.17;;;7.40;99.90;;;6.53;100.00;100863.19;4150955;28;20109;-84
2023/12/07 02:50:35;;;;;;;4.13;1.58;;;7.30;99.90;;;6.52;100.00;100868.53;4185509;28;20484;-85
2023/12/07 02:52:36;;;;;;;10.32;2.28;;;7.40;99.90;;;6.54;100.00;100867.44;4159392;28;20033;-85
2023/12/07 02:54:36;;;;;;;6.32;2.10;;;7.40;99.90;;;6.52;100.00;100863.28;4152236;28;20029;-85
2023/12/07 02:56:37;;;;;;;2.88;1.60;;;7.30;99.90;;;6.52;100.00;100869.38;4152071;28;20084;-85
2023/12/07 02:58:38;;;;;;;5.57;2.20;;;7.30;99.90;;;6.59;100.00;100872.31;4183980;28;20029;-86
2023/12/07 03:00:39;;;;;;;7.90;2.10;;;7.40;99.90;;;6.55;100.00;100863.03;4154191;28;20030;-84
2023/12/07 03:02:41;;;;;;;3.70;1.77;;;7.30;99.90;;;6.53;100.00;100871.03;4156740;28;20026;-85
2023/12/07 03:04:42;;;;;;;3.47;1.52;;;7.30;99.90;;;6.52;100.00;100863.28;4151134;28;20022;-85
2023/12/07 03:06:42;;;;;;;7.95;2.15;;;7.30;99.90;;;6.52;100.00;100869.38;4162105;28;20034;-84
2023/12/07 03:08:43;;;;;;;3.80;2.33;;;7.30;99.90;;;6.54;100.00;100864.81;4150729;28;20041;-86
2023/12/07 03:10:44;;;;;;;4.45;2.10;;;7.30;99.90;;;6.53;100.00;100854.47;4154585;28;20406;-84
2023/12/07 03:12:45;;;;;;;4.32;1.70;;;7.30;99.90;;;6.53;100.00;100864.97;4153566;28;20030;-84
2023/12/07 03:14:46;;;;;;;4.43;2.00;;;7.30;99.90;;;6.55;100.00;100856.00;4152034;28;20034;-83
2023/12/07 03:16:46;;;;;;;5.63;2.67;;;7.30;99.90;;;6.52;100.00;100853.66;4151824;28;20061;-84
2023/12/07 03:18:47;;;;;;;6.03;2.03;;;7.30;99.90;;;6.49;100.00;100858.31;4151979;28;20075;-85
2023/12/07 03:20:50;;;;;;;3.53;1.88;;;7.30;99.90;;;6.47;100.00;100850.59;4152512;28;20032;-85
2023/12/07 03:22:51;;;;;;;4.47;2.15;;;7.30;99.90;;;6.49;100.00;100851.28;4184904;28;20056;-85
2023/12/07 03:24:52;;;;;;;5.97;1.73;;;7.30;99.90;;;6.48;100.00;100859.28;4153596;28;20025;-85
2023/12/07 03:26:53;;;;;;;7.82;2.47;;;7.30;99.90;;;6.47;100.00;100840.09;4153935;28;20061;-85
2023/12/07 03:28:54;;;;;;;8.52;3.00;;;7.30;99.90;;;6.50;100.00;100823.28;4167554;28;20026;-85
2023/12/07 03:30:55;;;;;;;5.47;2.10;;;7.30;99.90;;;6.46;100.00;100816.63;4157514;28;20516;-85
2023/12/07 03:32:56;;;;;;;5.50;2.20;;;7.30;99.90;;;6.43;100.00;100811.66;4162671;28;20037;-84
2023/12/07 03:34:57;;;;;;;4.57;2.00;;;7.30;99.90;;;6.40;100.00;100807.50;4186605;28;20025;-85
2023/12/07 03:36:57;;;;;;;5.90;2.38;;;7.20;99.90;;;6.39;100.00;100805.03;4154826;28;20397;-84
2023/12/07 03:38:58;;;;;;;7.60;2.33;;;7.20;99.90;;;6.35;100.00;100799.19;4153574;28;20069;-86
2023/12/07 03:40:59;;;;;;;5.30;2.55;;;7.20;99.90;;;6.35;100.00;100796.56;4159083;28;20489;-86
2023/12/07 03:43:00;;;;;;;5.70;2.63;;;7.10;99.90;;;6.32;100.00;100788.13;4160983;28;20026;-86
2023/12/07 03:45:01;;;;;;;5.88;2.88;;;7.10;99.90;;;6.32;100.00;100794.22;4153632;28;20029;-85
2023/12/07 03:47:02;;;;;;;6.80;2.20;;;7.10;99.90;;;6.29;100.00;100791.00;4154604;28;20033;-86
2023/12/07 03:49:03;;;;;;;3.92;2.25;;;7.10;99.90;;;6.28;100.00;100795.41;4153499;28;20120;-86
2023/12/07 03:51:04;;;;;;;6.32;2.53;;;7.10;99.90;;;6.26;100.00;100799.97;4159427;28;20448;-86
2023/12/07 03:53:05;;;;;;;3.50;2.30;;;7.10;99.90;;;6.23;100.00;100800.22;4158405;28;20018;-84
2023/12/07 03:55:06;;;;;;;6.53;2.58;;;7.00;99.90;;;6.23;100.00;100800.22;4153458;28;20026;-85
2023/12/07 03:57:07;;;;;;;7.55;3.15;;;7.10;99.90;;;6.24;100.00;100801.88;4154631;28;20037;-85
2023/12/07 03:59:08;;;;;;;5.95;2.90;;;7.00;99.90;;;6.23;100.00;100797.59;4154537;28;20022;-86
2023/12/07 04:01:09;;;;;;;5.25;2.33;;;7.00;99.90;;;6.20;100.00;100800.47;4159654;28;20025;-86
2023/12/07 04:03:10;;;;;;;4.32;2.53;;;7.00;99.90;;;6.21;100.00;100788.22;4154696;28;20018;-84
2023/12/07 04:05:12;;;;;;;5.70;2.45;;;7.00;99.90;;;6.22;100.00;100797.69;4147195;28;20042;-85
2023/12/07 04:07:13;;;;;;;7.82;2.75;;;7.00;99.90;;;6.17;100.00;100790.25;4154290;28;20041;-83
2023/12/07 04:09:13;;;;;;;6.95;2.50;;;7.00;99.90;;;6.21;100.00;100798.69;4153170;28;20038;-85
2023/12/07 04:11:15;;;;;;;7.40;2.53;;;7.00;99.90;;;6.16;100.00;100796.44;4157597;28;20401;-84
2023/12/07 04:13:16;;;;;;;6.03;2.90;;;7.00;99.90;;;6.16;100.00;100809.53;4153319;28;20060;-85
2023/12/07 04:15:17;;;;;;;8.23;2.78;;;7.00;99.90;;;6.17;100.00;100808.56;4152939;28;20397;-82
2023/12/07 04:17:18;;;;;;;4.20;2.35;;;7.00;99.90;;;6.19;100.00;100811.88;4154265;28;20462;-85
2023/12/07 04:19:19;;;;;;;10.75;3.10;;;7.00;99.90;;;6.16;100.00;100799.03;4152844;28;20034;-84
2023/12/07 04:21:20;;;;;;;4.80;2.50;;;7.00;99.90;;;6.19;100.00;100796.16;4154039;28;20037;-84
2023/12/07 04:23:21;;;;;;;4.53;2.40;;;7.00;99.90;;;6.18;100.00;100794.53;4152688;28;20029;-84
2023/12/07 04:25:22;;;;;;;5.30;2.35;;;7.00;99.90;;;6.16;100.00;100791.19;4186005;28;20143;-84
2023/12/07 04:27:23;;;;;;;6.32;2.80;;;7.00;99.90;;;6.17;100.00;100786.78;4152787;28;20097;-86
2023/12/07 04:29:24;;;;;;;3.13;2.10;;;7.00;99.90;;;6.15;100.00;100786.94;4154269;28;20026;-85
2023/12/07 04:31:25;;;;;;;5.85;2.88;;;7.00;99.90;;;6.17;100.00;100798.09;4160864;28;20029;-85
2023/12/07 04:33:25;;;;;;;6.30;2.70;;;7.00;99.90;;;6.14;100.00;100790.50;4158597;28;20108;-85
2023/12/07 04:35:28;;;;;;;4.10;2.53;;;6.90;99.90;;;6.08;100.00;100783.13;4153797;28;20022;-84
2023/12/07 04:37:29;;;;;;;4.10;2.33;;;7.00;99.90;;;6.13;100.00;100789.66;4152800;28;20489;-85
2023/12/07 04:39:29;;;;;;;10.05;3.60;;;6.90;99.90;;;6.13;100.00;100783.59;4152821;28;20024;-83
2023/12/07 04:41:30;;;;;;;6.38;2.33;;;6.90;99.90;;;6.15;100.00;100783.47;4159994;28;20022;-84
2023/12/07 04:43:31;;;;;;;4.85;2.47;;;6.90;99.90;;;6.10;100.00;100775.97;4187712;28;20017;-84
2023/12/07 04:45:32;;;;;;;9.30;2.80;;;7.00;99.90;;;6.13;100.00;100778.34;4152712;28;20034;-84
2023/12/07 04:47:33;;;;;;;4.97;2.50;;;6.90;99.90;;;6.13;100.00;100778.34;4152779;28;20036;-84
2023/12/07 04:49:34;;;;;;;7.63;2.70;;;7.00;99.90;;;6.12;100.00;100771.47;4152842;28;20034;-84
2023/12/07 04:51:35;;;;;;;7.15;3.30;;;6.90;99.90;;;6.10;100.00;100765.50;4192168;28;20027;-84
2023/12/07 04:53:35;;;;;;;5.07;2.40;;;6.90;99.90;;;6.14;100.00;100761.69;4152512;28;20036;-85
2023/12/07 04:55:36;;;;;;;10.18;2.70;;;6.90;99.90;;;6.11;100.00;100761.94;4152661;28;20080;-86
2023/12/07 04:57:37;;;;;;;8.27;2.88;;;6.90;99.90;;;6.07;100.00;100758.75;4153745;28;20038;-84
2023/12/07 04:59:38;;;;;;;7.05;2.85;;;6.90;99.90;;;6.09;100.00;100753.38;4153651;28;20076;-84
2023/12/07 05:01:39;;;;;;;6.70;2.53;;;6.90;99.90;;;6.08;100.00;100757.78;4158701;28;20022;-84
2023/12/07 05:03:40;;;;;;;9.38;2.55;;;6.90;99.90;;;6.05;100.00;100751.97;4152163;28;20560;-84
2023/12/07 05:05:41;;;;;;;4.93;2.40;;;6.90;99.90;;;6.06;100.00;100756.25;4153554;28;20026;-85
2023/12/07 05:07:42;;;;;;;5.20;3.20;;;6.90;99.90;;;6.04;100.00;100750.28;4184802;28;20025;-84
2023/12/07 05:09:43;;;;;;;4.97;2.90;;;6.90;99.90;;;6.04;100.00;100756.38;4153383;28;20018;-86
2023/12/07 05:11:45;;;;;;;4.15;2.35;;;6.90;99.90;;;6.05;100.00;100765.91;4153154;28;20097;-84
2023/12/07 05:13:47;;;;;;;5.53;3.35;;;6.90;99.90;;;6.01;100.00;100750.56;4184950;28;20033;-84
2023/12/07 05:15:48;;;;;;;4.80;3.00;;;6.80;99.90;;;6.01;100.00;100764.47;4151922;28;20112;-84
2023/12/07 05:17:49;;;;;;;4.22;2.75;;;6.80;99.90;;;6.01;100.00;100758.41;4153333;28;20497;-84
2023/12/07 05:19:50;;;;;;;7.43;2.88;;;6.80;99.90;;;6.03;100.00;100767.00;4153248;28;20382;-84
2023/12/07 05:21:54;;;;;;;5.53;3.45;;;6.80;99.90;;;6.04;100.00;100766.84;4153794;28;20485;-84
2023/12/07 05:23:55;;;;;;;5.50;3.38;;;6.80;99.90;;;6.02;100.00;100762.69;4154093;28;20026;-84
2023/12/07 05:25:56;;;;;;;5.68;2.85;;;6.80;99.90;;;6.02;100.00;100766.16;4153489;28;20053;-85
2023/12/07 05:27:57;;;;;;;5.65;2.35;;;6.80;99.90;;;6.03;100.00;100761.75;4152223;28;20040;-85
2023/12/07 05:29:58;;;;;;;7.85;3.08;;;6.90;99.90;;;6.02;100.00;100762.69;4151809;28;20022;-85
2023/12/07 05:31:59;;;;;;;5.38;2.95;;;6.80;99.90;;;5.96;100.00;100753.56;4163641;28;20032;-85
2023/12/07 05:34:00;;;;;;;6.85;3.65;;;6.80;99.90;;;5.96;100.00;100745.72;4153092;28;20140;-85
2023/12/07 05:36:03;;;;;;;5.43;2.85;;;6.80;99.90;;;5.96;100.00;100734.41;4153132;28;20104;-86
2023/12/07 05:38:04;;;;;;;4.93;2.42;;;6.80;99.90;;;5.93;100.00;100732.88;4151523;28;20041;-85
2023/12/07 05:40:06;;;;;;;4.20;2.63;;;6.80;99.90;;;5.95;100.00;100741.41;4151804;28;20033;-87
2023/12/07 05:42:07;;;;;;;6.05;2.92;;;6.70;99.90;;;5.93;100.00;100734.66;4162039;28;20108;-86
2023/12/07 05:44:08;;;;;;;6.15;3.33;;;6.80;99.90;;;5.93;100.00;100729.41;4151822;28;20092;-85
2023/12/07 05:46:09;;;;;;;7.55;3.63;;;6.70;99.90;;;5.88;100.00;100731.59;4183510;28;20032;-84
2023/12/07 05:48:11;;;;;;;10.30;2.97;;;6.70;99.90;;;5.87;100.00;100729.91;4151832;28;20030;-84
2023/12/07 05:50:12;;;;;;;9.68;4.00;;;6.70;99.90;;;5.87;100.00;100724.69;4151829;28;20509;-83
2023/12/07 05:52:13;;;;;;;6.65;3.72;;;6.70;99.90;;;5.86;100.00;100717.78;4157660;28;20069;-85
2023/12/07 05:54:13;;;;;;;9.05;3.40;;;6.70;99.90;;;5.82;100.00;100717.19;4151509;28;20397;-84
2023/12/07 05:56:21;;;;;;;15.40;3.85;;;6.60;99.90;;;5.81;100.00;100720.75;4180410;28;20530;-85
2023/12/07 05:58:22;;;;;;;7.80;3.35;;;6.60;99.90;;;5.80;100.00;100713.84;4179051;28;20032;-85
2023/12/07 06:00:23;;;;;;;9.82;3.95;;;6.60;99.90;;;5.73;100.00;100702.25;4147361;28;20386;-83
2023/12/07 06:02:23;;;;;;;10.73;3.80;;;6.60;99.90;;;5.72;100.00;100704.97;4178189;28;20499;-85
2023/12/07 06:04:24;;;;;;;8.13;3.15;;;6.60;99.90;;;5.72;100.00;100704.97;4145083;28;20101;-85
2023/12/07 06:06:25;;;;;;;9.77;4.45;;;6.60;99.90;;;5.70;100.00;100697.25;4177559;28;20502;-84
2023/12/07 06:08:26;;;;;;;8.02;4.05;;;6.60;99.90;;;5.71;100.00;100700.69;4148199;28;20022;-87
2023/12/07 06:10:27;;;;;;;10.73;5.05;;;6.50;99.90;;;5.68;100.00;100690.47;4143568;28;20046;-86
2023/12/07 06:12:28;;;;;;;9.25;4.30;;;6.50;99.90;;;5.69;100.00;100689.53;4151729;28;20409;-85
2023/12/07 06:14:28;;;;;;;11.10;4.55;;;6.50;99.90;;;5.67;100.00;100687.03;4152444;28;20038;-85
2023/12/07 06:16:29;;;;;;;11.80;4.93;;;6.50;99.90;;;5.68;100.00;100682.63;4152374;28;20056;-87
2023/12/07 06:18:30;;;;;;;10.80;4.13;;;6.50;99.90;;;5.67;100.00;100679.19;4152488;28;20025;-85
2023/12/07 06:20:31;;;;;;;9.80;4.70;;;6.50;99.90;;;5.64;100.00;100674.22;4151103;28;20543;-85
2023/12/07 06:22:32;;;;;;;11.43;4.80;;;6.50;99.90;;;5.68;100.00;100669.53;4150990;28;20433;-85
2023/12/07 06:24:33;;;;;;;9.65;4.70;;;6.50;99.90;;;5.70;100.00;100675.50;4151293;28;20026;-84
2023/12/07 06:26:34;;;;;;;15.13;4.70;;;6.50;99.90;;;5.63;100.00;100667.31;4184010;28;20025;-85
2023/12/07 06:28:34;;;;;;;10.02;4.53;;;6.50;99.90;;;5.67;100.00;100679.19;4151235;28;20025;-85
2023/12/07 06:30:35;;;;;;;11.00;4.63;;;6.50;99.90;;;5.65;100.00;100677.63;4149168;28;20041;-85
2023/12/07 06:32:36;;;;;;;12.20;5.05;;;6.50;99.90;;;5.67;100.00;100678.38;4151946;28;20095;-85
2023/12/07 06:34:43;;;;;;;8.95;4.95;;;6.50;99.90;;;5.63;100.00;100664.69;4175293;28;20026;-85
2023/12/07 06:36:44;;;;;;;13.02;5.28;;;6.50;99.90;;;5.61;100.00;100650.91;4149541;28;20022;-86
2023/12/07 06:38:45;;;;;;;11.63;4.80;;;6.50;99.90;;;5.64;100.00;100658.50;4151313;28;20030;-86
2023/12/07 06:40:46;;;;;;;12.82;5.30;;;6.50;99.90;;;5.63;100.00;100667.31;4143288;28;20102;-87
2023/12/07 06:42:48;;;;;;;9.63;4.55;;;6.40;99.90;;;5.61;100.00;100660.53;4148628;28;20062;-85
2023/12/07 06:44:49;;;;;;;10.90;4.47;;;6.40;99.90;;;5.57;100.00;100652.94;4175876;28;20025;-86
2023/12/07 06:46:50;;;;;;;10.98;5.05;;;6.40;99.90;;;5.55;100.00;100657.47;4174147;28;20021;-85
2023/12/07 06:48:51;;;;;;;9.93;5.28;;;6.40;99.90;;;5.58;100.00;100659.03;4151310;28;20029;-85
2023/12/07 06:50:51;;;;;;;11.05;5.97;;;6.40;99.90;;;5.58;100.00;100667.66;4152249;28;20029;-85
2023/12/07 06:52:52;;;;;;;8.27;5.05;;;6.40;99.90;;;5.56;100.00;100653.91;4152368;28;20025;-84
2023/12/07 06:54:53;;;;;;;9.82;5.07;;;6.40;99.90;;;5.58;100.00;100657.22;4152161;28;20036;-86
2023/12/07 06:56:54;;;;;;;6.85;4.07;;;6.40;99.90;;;5.58;100.00;100649.34;4152806;28;20476;-84
2023/12/07 06:58:55;;;;;;;6.97;3.78;;;6.40;99.90;;;5.60;100.00;100646.63;4187278;28;20032;-86
2023/12/07 07:00:57;;;;;;;5.18;3.88;;;6.40;99.90;;;5.63;100.00;100633.28;4155517;28;20040;-85
2023/12/07 07:02:58;;;;;;;5.18;3.60;;;6.40;99.90;;;5.56;100.00;100632.97;4155421;28;20026;-85
2023/12/07 07:04:59;;;;;;;10.73;4.32;;;6.40;99.90;;;5.62;100.00;100641.25;4159310;28;20037;-85
2023/12/07 07:06:59;;;;;;;9.93;3.42;;;6.40;99.90;;;5.56;100.00;100630.34;4164265;28;20497;-87
2023/12/07 07:09:00;;;;;;;8.88;3.65;;;6.40;99.90;;;5.59;100.00;100639.72;4154153;28;20049;-86
2023/12/07 07:11:01;;;;;;;7.47;3.90;;;6.40;99.90;;;5.56;100.00;100638.19;4155200;28;20036;-85
2023/12/07 07:13:04;;;;;;;7.28;3.70;;;6.40;99.90;;;5.53;100.00;100627.97;4155348;28;20033;-84
2023/12/07 07:15:08;;;;;;;7.22;3.60;;;6.40;99.90;;;5.55;100.00;100631.28;4155329;28;20033;-84
2023/12/07 07:17:09;;;;;;;8.57;4.00;;;6.40;99.90;;;5.55;100.00;100631.28;4153831;28;20045;-85
2023/12/07 07:19:11;;;;;;;8.98;3.88;;;6.40;99.90;;;5.54;100.00;100640.13;4153905;28;20034;-86
2023/12/07 07:21:11;;;;;;;9.13;4.07;;;6.40;99.90;;;5.55;100.00;100641.75;4153897;28;20109;-85
2023/12/07 07:23:12;;;;;;;9.27;4.38;;;6.40;99.90;;;5.53;100.00;100627.97;4154985;28;20099;-86
2023/12/07 07:25:15;;;;;;;6.25;3.60;;;6.40;99.90;;;5.51;100.00;100627.28;4153751;28;20401;-84
2023/12/07 07:27:16;;;;;;;6.30;3.60;;;6.40;99.90;;;5.53;100.00;100629.75;4137650;28;20038;-86
2023/12/07 07:29:17;;;;;;;6.72;4.03;;;6.30;99.90;;;5.51;100.00;100616.81;4155091;28;20088;-84
2023/12/07 07:31:18;;;;;;;12.57;4.90;;;6.30;99.90;;;5.49;100.00;100610.06;4154020;28;20406;-85
2023/12/07 07:33:19;;;;;;;8.30;5.00;;;6.30;99.90;;;5.50;100.00;100612.53;4153718;28;20425;-87
2023/12/07 07:35:20;;;;;;;9.27;4.47;;;6.30;99.90;;;5.52;100.00;100609.81;4153646;28;20033;-86
2023/12/07 07:37:22;;;;;;;8.32;4.00;;;6.30;99.90;;;5.53;100.00;100607.06;4164974;28;20030;-84
2023/12/07 07:39:23;;;;;;;11.82;4.75;;;6.30;99.90;;;5.57;100.00;100597.16;4153685;28;20468;-84
2023/12/07 07:41:24;;;;;;;11.10;4.40;;;6.30;99.90;;;5.53;100.00;100599.22;4153695;28;20034;-84
2023/12/07 07:43:25;;;;;;;7.28;3.88;;;6.30;99.90;;;5.53;100.00;100593.97;4154805;28;20034;-84
2023/12/07 07:45:25;;;;;;;12.18;4.90;;;6.30;99.90;;;5.54;100.00;100592.19;4154604;28;20038;-84
2023/12/07 07:47:26;;;;;;;7.07;4.47;;;6.30;99.90;;;5.51;100.00;100589.84;4163048;28;20034;-84
2023/12/07 07:49:27;;;;;;;10.02;5.60;;;6.40;99.90;;;5.54;100.00;100586.97;4154576;28;20034;-83
2023/12/07 07:51:28;;;;;;;9.80;5.20;;;6.40;99.90;;;5.54;100.00;100573.88;4155018;28;20030;-83
2023/12/07 07:53:29;;;;;;;6.53;3.95;;;6.40;99.90;;;5.53;100.00;100572.22;4154096;28;20030;-83
2023/12/07 07:55:31;;;;;;;10.45;4.72;;;6.40;99.90;;;5.52;100.00;100568.78;4165167;28;20054;-84
2023/12/07 07:57:31;;;;;;;10.15;4.45;;;6.40;99.90;;;5.54;100.00;100569.47;4159989;28;20100;-86
2023/12/07 07:59:32;;;;;;;8.93;4.93;;;6.30;99.90;;;5.55;100.00;100560.66;4186256;28;20032;-82
2023/12/07 08:01:33;;;;;;;9.70;5.38;;;6.30;99.90;;;5.55;100.00;100565.88;4154382;28;20079;-84
2023/12/07 08:03:34;;;;;;;10.73;5.43;;;6.40;99.90;;;5.56;100.00;100557.09;4156901;28;20025;-84
2023/12/07 08:05:35;;;;;;;11.23;4.60;;;6.40;99.90;;;5.51;100.00;100556.66;4154505;28;20037;-84
2023/12/07 08:07:35;;;;;;;6.13;4.70;;;6.30;99.90;;;5.54;100.00;100556.41;4156951;28;20026;-82
2023/12/07 08:09:36;;;;;;;8.20;4.93;;;6.40;99.90;;;5.52;100.00;100560.09;4153436;28;20026;-86
2023/12/07 08:11:37;;;;;;;7.22;4.30;;;6.30;99.90;;;5.55;100.00;100557.22;4153305;28;20030;-85
2023/12/07 08:13:39;;;;;;;7.50;5.07;;;6.30;99.90;;;5.52;100.00;100542.63;4154384;28;20036;-84
2023/12/07 08:15:39;;;;;;;9.65;5.55;;;6.40;99.90;;;5.55;100.00;100552.81;4153335;28;20034;-83
2023/12/07 08:17:41;;;;;;;10.60;4.93;;;6.30;99.90;;;5.54;100.00;100548.56;4155140;28;20079;-86
2023/12/07 08:19:42;;;;;;;10.63;5.55;;;6.40;99.90;;;5.57;100.00;100560.53;4153127;28;20018;-85
2023/12/07 08:21:43;;;;;;;13.25;5.40;;;6.30;99.90;;;5.56;100.00;100554.47;4154203;28;20018;-85
2023/12/07 08:23:44;;;;;;;7.72;5.20;;;6.40;99.90;;;5.56;100.00;100549.25;4161980;28;20072;-84
2023/12/07 08:25:45;;;;;;;10.18;5.38;;;6.40;99.90;;;5.58;100.00;100552.53;4155257;28;20029;-84
2023/12/07 08:27:47;;;;;;;10.52;5.63;;;6.40;99.90;;;5.61;100.00;100545.41;4165866;28;20029;-85
2023/12/07 08:29:47;;;;;;;9.82;5.43;;;6.40;99.90;;;5.61;100.00;100548.88;4152953;28;20478;-86